Syosyun — JD2406 — position and weather

sailwx.info

Track history (hours):
 
Tides and Currents Weather Stations Pressure Air Temp Water Temp Dewpoint Dewpoint Depression Visibility Wind Speed Wind Dir Waves Ship Positions

Syosyun

Last reported at 2015-Apr-18 06:05 UTC. Time now 2015-Apr-21 19:03 UTC.
Position N 34°60' E 140°12'.

Length 74 m; draft 4.7 m.

Type: Cargo ship. MMSI: 431000201.

Date/timePositionNaut miles runAvg speedWind from/ knotsBaromVisibWave heightAir tempDewpointWater temp
2015-Apr-18 06:05N 34°60' E 140°12'37 0.8
2015-Apr-16 08:23N 35°00' E 139°27'8 9.2
2015-Apr-16 07:32N 35°04' E 139°36'9 9.3
2015-Apr-16 06:33N 35°10' E 139°44'10 9.5
2015-Apr-16 05:33N 35°19' E 139°43'6 6.3
2015-Apr-16 04:33N 35°25' E 139°41'0 0.0
2015-Apr-16 03:30N 35°25' E 139°41'0 0.0
2015-Apr-16 02:30N 35°25' E 139°41'0 0.0
2015-Apr-16 01:33N 35°25' E 139°41'0 0.0
2015-Apr-16 00:30N 35°25' E 139°41'0 0.0
2015-Apr-15 23:24N 35°25' E 139°41'0 0.0
2015-Apr-15 22:33N 35°25' E 139°41'0 0.0
2015-Apr-15 21:33N 35°25' E 139°41'0 0.0
2015-Apr-15 20:15N 35°25' E 139°41'0 0.0
2015-Apr-15 19:33N 35°25' E 139°41'0 0.0
2015-Apr-15 18:27N 35°25' E 139°41'0 0.0
2015-Apr-15 17:33N 35°25' E 139°41'0 0.0
2015-Apr-15 16:33N 35°25' E 139°41'0 0.0
2015-Apr-15 15:33N 35°25' E 139°41'0 0.0
2015-Apr-15 14:30N 35°25' E 139°41'0 0.0
2015-Apr-15 13:33N 35°25' E 139°41'0 0.0
2015-Apr-15 12:33N 35°25' E 139°41'0 0.0
2015-Apr-15 11:33N 35°25' E 139°41'0 0.0
2015-Apr-15 10:33N 35°25' E 139°41'0 0.0
2015-Apr-15 09:33N 35°25' E 139°41'0 0.0
2015-Apr-15 08:27N 35°25' E 139°41'0 0.3
2015-Apr-15 07:33N 35°25' E 139°41'10 9.5
2015-Apr-15 06:33N 35°30' E 139°51'1010.3
2015-Apr-15 05:33N 35°34' E 140°03'4 2.9
2015-Apr-15 04:19N 35°33' E 140°07'0 0.0
2015-Apr-15 03:28N 35°33' E 140°07'0 0.0
2015-Apr-15 02:31N 35°33' E 140°07'0 0.0
2015-Apr-15 01:25N 35°33' E 140°07'0 0.0
2015-Apr-15 00:25N 35°33' E 140°07'0 0.0
2015-Apr-14 23:25N 35°33' E 140°07'0 0.0
2015-Apr-14 22:28N 35°33' E 140°07'0 0.0
2015-Apr-14 21:28N 35°33' E 140°07'0 0.0
2015-Apr-14 20:28N 35°33' E 140°07'0 0.0
2015-Apr-14 19:28N 35°33' E 140°07'0 0.0
2015-Apr-14 18:28N 35°33' E 140°07'0 0.0
2015-Apr-14 17:28N 35°33' E 140°07'0 0.0
2015-Apr-14 16:28N 35°33' E 140°07'0 0.0
2015-Apr-14 15:28N 35°33' E 140°07'0 0.0
2015-Apr-14 14:28N 35°33' E 140°07'0 0.0
2015-Apr-14 13:22N 35°33' E 140°07'0 0.0
2015-Apr-14 12:28N 35°33' E 140°07'0 0.0
2015-Apr-14 11:28N 35°33' E 140°07'0 0.0
2015-Apr-14 09:28N 35°33' E 140°07'0 0.0
2015-Apr-14 08:28N 35°33' E 140°07'0 0.0
2015-Apr-14 07:28N 35°33' E 140°07'0 0.0
2015-Apr-14 06:28N 35°33' E 140°07'0 0.0
2015-Apr-14 05:10N 35°33' E 140°07'0 0.0
2015-Apr-14 04:28N 35°33' E 140°07'0 0.0
2015-Apr-14 03:22N 35°33' E 140°07'0 0.0
2015-Apr-14 02:10N 35°33' E 140°07'0 0.0
2015-Apr-14 01:28N 35°33' E 140°07'0 0.0
2015-Apr-14 00:22N 35°33' E 140°07'0 0.0
2015-Apr-13 23:04N 35°33' E 140°07'0 0.0
2015-Apr-13 22:19N 35°33' E 140°07'0 0.0
2015-Apr-13 21:26N 35°33' E 140°07'0 0.0
2015-Apr-13 20:08N 35°33' E 140°07'0 0.0
2015-Apr-13 19:31N 35°33' E 140°07'0 0.0
2015-Apr-13 18:31N 35°33' E 140°07'0 0.0
2015-Apr-13 17:26N 35°33' E 140°07'0 0.0
2015-Apr-13 16:25N 35°33' E 140°07'0 0.0
2015-Apr-13 15:25N 35°33' E 140°07'0 0.0
2015-Apr-13 14:25N 35°33' E 140°07'0 0.0
2015-Apr-13 13:32N 35°33' E 140°07'0 0.0
2015-Apr-13 12:31N 35°33' E 140°07'0 0.0
2015-Apr-13 11:13N 35°33' E 140°07'0 0.0
2015-Apr-13 10:31N 35°33' E 140°07'0 0.0
2015-Apr-13 09:31N 35°33' E 140°07'0 0.0
2015-Apr-13 08:25N 35°33' E 140°07'0 0.0
2015-Apr-13 07:31N 35°33' E 140°07'0 0.0
2015-Apr-13 05:31N 35°33' E 140°07'0 0.0
2015-Apr-13 04:31N 35°33' E 140°07'0 0.0
2015-Apr-13 03:07N 35°33' E 140°07'0 0.0
2015-Apr-13 02:31N 35°33' E 140°07'0 0.0
2015-Apr-13 01:19N 35°33' E 140°07'0 0.0
2015-Apr-13 00:31N 35°33' E 140°07'0 0.0
2015-Apr-12 23:22N 35°33' E 140°07'3 3.4
2015-Apr-12 22:33N 35°33' E 140°03'1 0.6
2015-Apr-12 21:22N 35°33' E 140°03'0 0.0
2015-Apr-12 20:28N 35°33' E 140°03'0 0.0
2015-Apr-12 19:28N 35°33' E 140°03'0 0.0
2015-Apr-12 18:28N 35°33' E 140°03'0 0.0
2015-Apr-12 17:28N 35°33' E 140°03'0 0.0
2015-Apr-12 16:28N 35°33' E 140°03'0 0.0
2015-Apr-12 15:22N 35°33' E 140°03'0 0.0
2015-Apr-12 14:28N 35°33' E 140°03'6 6.3
2015-Apr-12 13:33N 35°31' E 139°56'1111.0
2015-Apr-12 12:33N 35°24' E 139°46'1010.4
2015-Apr-12 11:33N 35°13' E 139°47'1010.3
2015-Apr-12 10:33N 35°04' E 139°40'  
2015-Apr-08 22:33N 35°06' E 139°39'1110.6
2015-Apr-08 21:32N 35°16' E 139°45'5 5.6
2015-Apr-08 20:33N 35°19' E 139°40'0 0.0
2015-Apr-08 19:33N 35°19' E 139°40'0 0.0
2015-Apr-08 18:32N 35°19' E 139°40'0 0.0
2015-Apr-08 17:30N 35°19' E 139°40'0 0.0
2015-Apr-08 16:33N 35°19' E 139°40'0 0.0
2015-Apr-08 15:33N 35°19' E 139°40'0 0.0
2015-Apr-08 14:33N 35°19' E 139°40'0 0.0
2015-Apr-08 13:29N 35°19' E 139°40'0 0.0
2015-Apr-08 12:33N 35°19' E 139°40'0 0.0
2015-Apr-08 11:30N 35°19' E 139°40'0 0.0
2015-Apr-08 10:29N 35°19' E 139°40'0 0.0
2015-Apr-08 09:32N 35°19' E 139°40'0 0.0
2015-Apr-08 08:32N 35°19' E 139°40'0 0.0
2015-Apr-08 07:32N 35°19' E 139°40'0 0.0
2015-Apr-08 06:33N 35°19' E 139°40'  
Track history (hours):
 
Tides and Currents Weather Stations Pressure Air Temp Water Temp Dewpoint Dewpoint Depression Visibility Wind Speed Wind Dir Waves Ship Positions

Syosyun

Last reported at 2015-Apr-18 06:05 UTC. Time now 2015-Apr-21 19:03 UTC.
Position N 34°60' E 140°12'.

Length 74 m; draft 4.7 m.

Type: Cargo ship. MMSI: 431000201.

Date/timePositionNaut miles runAvg speedWind from/ knotsBaromVisibWave heightAir tempDewpointWater temp
2015-Apr-18 06:05N 34°60' E 140°12'37 0.8
2015-Apr-16 08:23N 35°00' E 139°27'8 9.2
2015-Apr-16 07:32N 35°04' E 139°36'9 9.3
2015-Apr-16 06:33N 35°10' E 139°44'10 9.5
2015-Apr-16 05:33N 35°19' E 139°43'6 6.3
2015-Apr-16 04:33N 35°25' E 139°41'0 0.0
2015-Apr-16 03:30N 35°25' E 139°41'0 0.0
2015-Apr-16 02:30N 35°25' E 139°41'0 0.0
2015-Apr-16 01:33N 35°25' E 139°41'0 0.0
2015-Apr-16 00:30N 35°25' E 139°41'0 0.0
2015-Apr-15 23:24N 35°25' E 139°41'0 0.0
2015-Apr-15 22:33N 35°25' E 139°41'0 0.0
2015-Apr-15 21:33N 35°25' E 139°41'0 0.0
2015-Apr-15 20:15N 35°25' E 139°41'0 0.0
2015-Apr-15 19:33N 35°25' E 139°41'0 0.0
2015-Apr-15 18:27N 35°25' E 139°41'0 0.0
2015-Apr-15 17:33N 35°25' E 139°41'0 0.0
2015-Apr-15 16:33N 35°25' E 139°41'0 0.0
2015-Apr-15 15:33N 35°25' E 139°41'0 0.0
2015-Apr-15 14:30N 35°25' E 139°41'0 0.0
2015-Apr-15 13:33N 35°25' E 139°41'0 0.0
2015-Apr-15 12:33N 35°25' E 139°41'0 0.0
2015-Apr-15 11:33N 35°25' E 139°41'0 0.0
2015-Apr-15 10:33N 35°25' E 139°41'0 0.0
2015-Apr-15 09:33N 35°25' E 139°41'0 0.0
2015-Apr-15 08:27N 35°25' E 139°41'0 0.3
2015-Apr-15 07:33N 35°25' E 139°41'10 9.5
2015-Apr-15 06:33N 35°30' E 139°51'1010.3
2015-Apr-15 05:33N 35°34' E 140°03'4 2.9
2015-Apr-15 04:19N 35°33' E 140°07'0 0.0
2015-Apr-15 03:28N 35°33' E 140°07'0 0.0
2015-Apr-15 02:31N 35°33' E 140°07'0 0.0
2015-Apr-15 01:25N 35°33' E 140°07'0 0.0
2015-Apr-15 00:25N 35°33' E 140°07'0 0.0
2015-Apr-14 23:25N 35°33' E 140°07'0 0.0
2015-Apr-14 22:28N 35°33' E 140°07'0 0.0
2015-Apr-14 21:28N 35°33' E 140°07'0 0.0
2015-Apr-14 20:28N 35°33' E 140°07'0 0.0
2015-Apr-14 19:28N 35°33' E 140°07'0 0.0
2015-Apr-14 18:28N 35°33' E 140°07'0 0.0
2015-Apr-14 17:28N 35°33' E 140°07'0 0.0
2015-Apr-14 16:28N 35°33' E 140°07'0 0.0
2015-Apr-14 15:28N 35°33' E 140°07'0 0.0
2015-Apr-14 14:28N 35°33' E 140°07'0 0.0
2015-Apr-14 13:22N 35°33' E 140°07'0 0.0
2015-Apr-14 12:28N 35°33' E 140°07'0 0.0
2015-Apr-14 11:28N 35°33' E 140°07'0 0.0
2015-Apr-14 09:28N 35°33' E 140°07'0 0.0
2015-Apr-14 08:28N 35°33' E 140°07'0 0.0
2015-Apr-14 07:28N 35°33' E 140°07'0 0.0
2015-Apr-14 06:28N 35°33' E 140°07'0 0.0
2015-Apr-14 05:10N 35°33' E 140°07'0 0.0
2015-Apr-14 04:28N 35°33' E 140°07'0 0.0
2015-Apr-14 03:22N 35°33' E 140°07'0 0.0
2015-Apr-14 02:10N 35°33' E 140°07'0 0.0
2015-Apr-14 01:28N 35°33' E 140°07'0 0.0
2015-Apr-14 00:22N 35°33' E 140°07'0 0.0
2015-Apr-13 23:04N 35°33' E 140°07'0 0.0
2015-Apr-13 22:19N 35°33' E 140°07'0 0.0
2015-Apr-13 21:26N 35°33' E 140°07'0 0.0
2015-Apr-13 20:08N 35°33' E 140°07'0 0.0
2015-Apr-13 19:31N 35°33' E 140°07'0 0.0
2015-Apr-13 18:31N 35°33' E 140°07'0 0.0
2015-Apr-13 17:26N 35°33' E 140°07'0 0.0
2015-Apr-13 16:25N 35°33' E 140°07'0 0.0
2015-Apr-13 15:25N 35°33' E 140°07'0 0.0
2015-Apr-13 14:25N 35°33' E 140°07'0 0.0
2015-Apr-13 13:32N 35°33' E 140°07'0 0.0
2015-Apr-13 12:31N 35°33' E 140°07'0 0.0
2015-Apr-13 11:13N 35°33' E 140°07'0 0.0
2015-Apr-13 10:31N 35°33' E 140°07'0 0.0
2015-Apr-13 09:31N 35°33' E 140°07'0 0.0
2015-Apr-13 08:25N 35°33' E 140°07'0 0.0
2015-Apr-13 07:31N 35°33' E 140°07'0 0.0
2015-Apr-13 05:31N 35°33' E 140°07'0 0.0
2015-Apr-13 04:31N 35°33' E 140°07'0 0.0
2015-Apr-13 03:07N 35°33' E 140°07'0 0.0
2015-Apr-13 02:31N 35°33' E 140°07'0 0.0
2015-Apr-13 01:19N 35°33' E 140°07'0 0.0
2015-Apr-13 00:31N 35°33' E 140°07'0 0.0
2015-Apr-12 23:22N 35°33' E 140°07'3 3.4
2015-Apr-12 22:33N 35°33' E 140°03'1 0.6
2015-Apr-12 21:22N 35°33' E 140°03'0 0.0
2015-Apr-12 20:28N 35°33' E 140°03'0 0.0
2015-Apr-12 19:28N 35°33' E 140°03'0 0.0
2015-Apr-12 18:28N 35°33' E 140°03'0 0.0
2015-Apr-12 17:28N 35°33' E 140°03'0 0.0
2015-Apr-12 16:28N 35°33' E 140°03'0 0.0
2015-Apr-12 15:22N 35°33' E 140°03'0 0.0
2015-Apr-12 14:28N 35°33' E 140°03'6 6.3
2015-Apr-12 13:33N 35°31' E 139°56'1111.0
2015-Apr-12 12:33N 35°24' E 139°46'1010.4
2015-Apr-12 11:33N 35°13' E 139°47'1010.3
2015-Apr-12 10:33N 35°04' E 139°40'  
2015-Apr-08 22:33N 35°06' E 139°39'1110.6
2015-Apr-08 21:32N 35°16' E 139°45'5 5.6
2015-Apr-08 20:33N 35°19' E 139°40'0 0.0
2015-Apr-08 19:33N 35°19' E 139°40'0 0.0
2015-Apr-08 18:32N 35°19' E 139°40'0 0.0
2015-Apr-08 17:30N 35°19' E 139°40'0 0.0
2015-Apr-08 16:33N 35°19' E 139°40'0 0.0
2015-Apr-08 15:33N 35°19' E 139°40'0 0.0
2015-Apr-08 14:33N 35°19' E 139°40'0 0.0
2015-Apr-08 13:29N 35°19' E 139°40'0 0.0
2015-Apr-08 12:33N 35°19' E 139°40'0 0.0
2015-Apr-08 11:30N 35°19' E 139°40'0 0.0
2015-Apr-08 10:29N 35°19' E 139°40'0 0.0
2015-Apr-08 09:32N 35°19' E 139°40'0 0.0
2015-Apr-08 08:32N 35°19' E 139°40'0 0.0
2015-Apr-08 07:32N 35°19' E 139°40'0 0.0
2015-Apr-08 06:33N 35°19' E 139°40'  

Dump ship's entire track history